createdAt,value
2023-05-03T00:04:21.238Z,0
2023-05-03T00:09:22.846Z,0
2023-05-03T00:14:24.541Z,0
2023-05-03T00:19:31.504Z,0
2023-05-03T00:24:33.189Z,0
2023-05-03T00:29:34.592Z,0
2023-05-03T00:34:36.014Z,0.88715
2023-05-03T00:39:37.495Z,0
2023-05-03T00:44:38.889Z,0
2023-05-03T00:49:40.331Z,0
2023-05-03T00:54:41.621Z,0
2023-05-03T00:59:42.944Z,0
2023-05-03T01:04:44.370Z,0
2023-05-03T01:09:45.613Z,0
2023-05-03T01:14:47.110Z,0
2023-05-03T01:19:48.656Z,0
2023-05-03T01:24:49.951Z,0.88715
2023-05-03T01:29:51.447Z,0.88715
2023-05-03T01:34:53.049Z,0
2023-05-03T01:39:54.279Z,0
2023-05-03T01:44:55.784Z,0
2023-05-03T01:49:57.232Z,0.88715
2023-05-03T01:54:58.472Z,0.88715
2023-05-03T02:00:00.048Z,0
2023-05-03T02:05:01.432Z,0
2023-05-03T02:10:03.018Z,0
2023-05-03T02:15:04.984Z,0
2023-05-03T02:20:06.362Z,0
2023-05-03T02:25:07.734Z,0
2023-05-03T02:30:09.026Z,0.88715
2023-05-03T02:35:10.638Z,0
2023-05-03T02:40:12.234Z,0
2023-05-03T02:45:13.927Z,0.88715
2023-05-03T02:50:15.561Z,0
2023-05-03T02:55:16.998Z,0
2023-05-03T03:00:18.359Z,0
2023-05-03T03:16:24.902Z,0
2023-05-03T03:21:26.474Z,0
2023-05-03T03:26:27.697Z,0
2023-05-03T03:31:29.403Z,0.88715
2023-05-03T03:36:31.086Z,0
2023-05-03T03:41:32.659Z,0
2023-05-03T03:46:34.333Z,0.88715
2023-05-03T03:51:35.979Z,0
2023-05-03T03:56:37.579Z,0.88715
2023-05-03T04:01:39.152Z,0.88715
2023-05-03T04:06:40.466Z,0.88715
2023-05-03T04:11:41.970Z,0
2023-05-03T04:16:43.284Z,0.4148
2023-05-03T04:21:44.580Z,3.67
2023-05-03T04:26:45.915Z,2.42955
2023-05-03T04:31:47.517Z,10.0326
2023-05-03T04:36:48.758Z,24.76775
2023-05-03T04:41:50.138Z,38.70995
2023-05-03T04:46:51.790Z,54.5518
2023-05-03T04:51:54.406Z,78.71105
2023-05-03T04:56:55.908Z,100.5466
2023-05-03T05:01:57.190Z,120.1136
2023-05-03T05:06:58.624Z,140.658
2023-05-03T05:12:00.283Z,158.8787
2023-05-03T05:17:02.194Z,177.0994
2023-05-03T05:22:04.024Z,192.20345
2023-05-03T05:27:05.500Z,206.51455
2023-05-03T05:32:07.373Z,228.40525
2023-05-03T05:37:09.160Z,240.52195
2023-05-03T05:42:10.864Z,257.52565
2023-05-03T05:47:12.648Z,270.0664
2023-05-03T05:52:14.452Z,276.98235
2023-05-03T05:57:16.135Z,282.73645
2023-05-03T06:02:18.086Z,295.4065
2023-05-03T06:07:19.711Z,314.07025
2023-05-03T06:12:21.409Z,335.7955
2023-05-03T06:17:23.137Z,369.13925
2023-05-03T06:22:24.672Z,410.87455
2023-05-03T06:27:26.193Z,442.70655
2023-05-03T06:32:27.901Z,496.743
2023-05-03T06:37:29.474Z,545.8373
2023-05-03T06:42:30.980Z,571.0671
2023-05-03T06:47:32.632Z,594.26795
2023-05-03T06:52:34.333Z,608.4136
2023-05-03T06:57:35.871Z,631.24555
2023-05-03T07:02:37.264Z,651.7538
2023-05-03T07:07:38.642Z,677.27835
2023-05-03T07:12:40.080Z,697.60215
2023-05-03T07:17:41.444Z,721.0426
2023-05-03T07:22:42.690Z,737.88085
2023-05-03T07:27:43.982Z,747.5084
2023-05-03T07:32:45.416Z,763.36925
2023-05-03T07:37:46.829Z,786.2012
2023-05-03T07:42:48.344Z,793.50505
2023-05-03T07:47:50.001Z,811.87405
2023-05-03T07:52:51.493Z,837.82265
2023-05-03T07:57:52.847Z,832.95465
2023-05-03T08:02:54.815Z,863.0163
2023-05-03T08:07:56.557Z,880.039
2023-05-03T08:12:58.091Z,906.55995
2023-05-03T08:17:59.562Z,946.59905
2023-05-03T08:23:00.924Z,968.76735
2023-05-03T08:28:02.368Z,989.34975
2023-05-03T08:33:03.682Z,1009.5081
2023-05-03T08:38:05.140Z,1030.27495
2023-05-03T08:43:06.460Z,1046.94775
2023-05-03T08:48:07.834Z,1066.7372
2023-05-03T08:53:09.197Z,1086.1026
2023-05-03T08:58:10.540Z,1076.53205
2023-05-03T09:03:12.190Z,1112.1082
2023-05-03T09:08:13.868Z,1133.7973
2023-05-03T09:13:15.155Z,1144.53155
2023-05-03T09:18:16.676Z,1170.6836
2023-05-03T09:23:18.028Z,1169.67005
2023-05-03T09:28:19.278Z,1193.92245
2023-05-03T09:33:20.644Z,1215.24265
2023-05-03T09:38:22.189Z,1234.36845
2023-05-03T09:43:23.696Z,1273.2267
2023-05-03T09:48:25.209Z,1267.58475
2023-05-03T09:53:31.501Z,1298.18075
2023-05-03T09:58:32.736Z,1326.6375
2023-05-03T10:03:34.179Z,1353.3239
2023-05-03T10:08:35.692Z,1412.3215
2023-05-03T10:13:36.980Z,1436.5739
2023-05-03T10:18:38.679Z,1466.22865
2023-05-03T10:23:40.354Z,1498.2451
2023-05-03T10:28:41.615Z,1533.5988
2023-05-03T10:33:43.237Z,1558.0908
2023-05-03T10:38:44.610Z,1589.4246
2023-05-03T10:43:45.870Z,1640.36155
2023-05-03T10:48:47.152Z,1653.84355
2023-05-03T10:53:48.521Z,1717.32125
2023-05-03T10:58:49.867Z,1754.26085
2023-05-03T11:03:51.323Z,1792.3623
2023-05-03T11:08:52.802Z,1831.82905
2023-05-03T11:13:54.113Z,1834.2459
2023-05-03T11:18:55.616Z,1873.80395
2023-05-03T11:23:57.096Z,1825.8905
2023-05-03T11:28:58.355Z,1898.9216
2023-05-03T11:33:59.729Z,1900.54365
2023-05-03T11:39:01.024Z,1892.48485
2023-05-03T11:44:15.070Z,1910.87285
2023-05-03T11:49:20.113Z,1960.40835
2023-05-03T11:54:26.102Z,1082.0146
2023-05-03T11:59:28.896Z,1888.50295
2023-05-03T12:04:30.801Z,2019.754
2023-05-03T12:09:32.757Z,2011.80365
2023-05-03T12:14:36.022Z,2056.10225
2023-05-03T12:19:39.321Z,2070.0806
2023-05-03T12:24:42.946Z,1915.8113
2023-05-03T12:29:47.346Z,2032.94125
2023-05-03T12:34:51.813Z,1931.47055
2023-05-03T12:40:11.795Z,1946.9968
2023-05-03T12:50:31.214Z,590.42695
2023-05-03T12:55:34.235Z,846.0432
2023-05-03T13:00:37.186Z,847.5605
2023-05-03T13:05:39.505Z,715.4405
2023-05-03T13:10:41.523Z,1632.90755
2023-05-03T13:15:43.264Z,1271.90545
2023-05-03T13:20:44.701Z,1820.3116
2023-05-03T13:25:45.967Z,1203.0676
2023-05-03T13:30:47.283Z,1670.3551
2023-05-03T13:35:48.682Z,1718.0081
2023-05-03T13:40:49.935Z,1090.37
2023-05-03T13:45:51.215Z,633.9363
2023-05-03T13:50:52.777Z,400.19915
2023-05-03T13:55:54.387Z,322.8154
2023-05-03T14:00:56.198Z,302.91565
2023-05-03T14:05:57.791Z,340.63105
2023-05-03T14:10:59.559Z,348.24865
2023-05-03T14:16:01.272Z,368.70175
2023-05-03T14:21:03.089Z,361.7858
2023-05-03T14:26:04.827Z,286.81705
2023-05-03T14:31:06.511Z,224.2046
2023-05-03T14:36:08.259Z,177.434
2023-05-03T14:41:09.872Z,167.21695
2023-05-03T14:46:11.584Z,145.36425
2023-05-03T14:51:13.185Z,107.6127
2023-05-03T14:56:14.781Z,89.0954
2023-05-03T15:01:16.520Z,69.34395
2023-05-03T15:06:18.347Z,40.7769
2023-05-03T15:11:20.077Z,24.30755
2023-05-03T15:16:21.763Z,16.8934
2023-05-03T15:21:23.773Z,7.1004
2023-05-03T15:26:25.349Z,7.52445
2023-05-03T15:31:27.025Z,4.22335
2023-05-03T15:36:28.703Z,3.85445
2023-05-03T15:41:30.544Z,1.53075
2023-05-03T15:46:32.374Z,0.8296
2023-05-03T15:51:34.044Z,0.47405
2023-05-03T15:56:35.534Z,1.16185
2023-05-03T16:01:37.283Z,0.88715
2023-05-03T16:06:39.176Z,0.88715
2023-05-03T16:11:40.451Z,0.88715
2023-05-03T16:16:41.924Z,0.88715
2023-05-03T16:21:43.541Z,0
2023-05-03T16:26:44.835Z,0
2023-05-03T16:31:46.180Z,0
2023-05-03T16:36:47.517Z,0.88715
2023-05-03T16:41:49.090Z,0
2023-05-03T16:46:50.510Z,0
2023-05-03T16:51:51.795Z,0
2023-05-03T16:56:53.504Z,0
2023-05-03T17:01:54.996Z,0
2023-05-03T17:06:56.611Z,0
2023-05-03T17:11:58.209Z,0
2023-05-03T17:16:59.919Z,0.88715
2023-05-03T17:22:01.666Z,0
2023-05-03T17:27:03.288Z,0
2023-05-03T17:32:04.602Z,0.88715
2023-05-03T17:37:06.249Z,0
2023-05-03T17:42:07.508Z,0
2023-05-03T17:47:09.090Z,0
2023-05-03T17:52:10.744Z,0
2023-05-03T17:57:12.378Z,0
2023-05-03T18:02:14.075Z,0.88715
2023-05-03T18:07:15.697Z,0.88715
2023-05-03T18:12:17.325Z,0
2023-05-03T18:17:18.958Z,0
2023-05-03T18:22:20.656Z,0
2023-05-03T18:27:22.331Z,0
2023-05-03T18:32:24.007Z,0
2023-05-03T18:37:25.724Z,0
2023-05-03T18:42:27.291Z,0
2023-05-03T18:47:29.053Z,0
2023-05-03T18:52:31.010Z,0
2023-05-03T18:57:32.581Z,0
2023-05-03T19:02:34.355Z,0
2023-05-03T19:07:36.082Z,0
2023-05-03T19:12:37.751Z,0.88715
2023-05-03T19:17:39.341Z,0
2023-05-03T19:22:41.002Z,0.88715
2023-05-03T19:27:42.349Z,0
2023-05-03T19:32:43.688Z,0
2023-05-03T19:37:45.124Z,0
2023-05-03T19:42:46.719Z,0
2023-05-03T19:47:48.136Z,0
2023-05-03T19:52:49.534Z,0.88715
2023-05-03T19:57:50.880Z,0.88715
2023-05-03T20:02:52.215Z,0.88715
2023-05-03T20:07:53.846Z,0
2023-05-03T20:12:55.687Z,0
2023-05-03T20:17:57.591Z,0
2023-05-03T20:22:59.625Z,0
2023-05-03T20:28:01.329Z,0
2023-05-03T20:33:03.079Z,0.88715
2023-05-03T20:38:04.959Z,0
2023-05-03T20:43:06.855Z,0
2023-05-03T20:48:08.589Z,0
2023-05-03T20:53:10.273Z,0
2023-05-03T20:58:12.024Z,0
2023-05-03T21:03:13.960Z,0.88715
2023-05-03T21:08:15.785Z,0
2023-05-03T21:13:17.515Z,0
2023-05-03T21:18:19.092Z,0.88715
2023-05-03T21:23:20.559Z,0.88715
2023-05-03T21:28:22.113Z,0
2023-05-03T21:33:23.574Z,0
2023-05-03T21:38:25.449Z,0.88715
2023-05-03T21:43:27.209Z,0
2023-05-03T21:48:28.769Z,0
2023-05-03T21:53:30.580Z,0.88715
2023-05-03T21:58:32.136Z,0
2023-05-03T22:03:33.763Z,0
2023-05-03T22:08:35.422Z,0.88715
2023-05-03T22:13:46.124Z,0.88715
2023-05-03T22:18:56.111Z,0.88715
2023-05-03T22:23:57.368Z,0
2023-05-03T22:28:58.803Z,0
2023-05-03T22:34:00.121Z,0.88715
2023-05-03T22:39:01.671Z,0.88715
2023-05-03T22:44:03.096Z,0.88715
2023-05-03T22:49:04.844Z,0
2023-05-03T22:54:06.432Z,0
2023-05-03T22:59:08.196Z,0
2023-05-03T23:04:09.526Z,0
2023-05-03T23:09:11.109Z,0
2023-05-03T23:14:12.729Z,0
2023-05-03T23:19:14.395Z,0
2023-05-03T23:24:16.063Z,0.88715
2023-05-03T23:29:17.661Z,0
2023-05-03T23:34:19.777Z,0
2023-05-03T23:39:21.374Z,0
2023-05-03T23:44:22.922Z,0
2023-05-03T23:49:24.384Z,0.88715
2023-05-03T23:54:25.787Z,0.88715
2023-05-03T23:59:27.388Z,0
